Time;durP1;ratioP1;P1;durP2;ratioP2;P2;SDS_P1;SDS_P2;PMS_P1;PMS_P2;Temp;Humidity;BMP_temperature;BMP_pressure;BME280_temperature;BME280_humidity;BME280_pressure;Samples;Min_cycle;Max_cycle;Signal;HPM_P1;HPM_P2
2022/03/02 00:01:56;;;;;;;42.25;16.98;;;;;;;;;;5058843;28;20021;-71
2022/03/02 00:04:22;;;;;;;39.28;14.75;;;;;;;;;;5038219;28;20366;-72
2022/03/02 00:06:49;;;;;;;35.28;14.23;;;;;;;;;;5056070;28;20029;-67
2022/03/02 00:09:15;;;;;;;42.40;13.55;;;;;;;;;;5060784;28;20039;-70
2022/03/02 00:11:41;;;;;;;39.33;16.08;;;;;;;;;;5050691;28;20489;-67
2022/03/02 00:14:07;;;;;;;43.53;20.67;;;;;;;;;;5049337;28;20110;-65
2022/03/02 00:16:34;;;;;;;55.50;19.23;;;;;;;;;;5049415;28;20013;-67
2022/03/02 00:19:01;;;;;;;36.05;14.45;;;;;;;;;;5047822;28;20067;-64
2022/03/02 00:21:27;;;;;;;32.85;14.00;;;;;;;;;;5042739;28;20025;-65
2022/03/02 00:23:53;;;;;;;34.45;13.35;;;;;;;;;;5050626;28;20036;-66
2022/03/02 00:26:19;;;;;;;32.67;13.20;;;;;;;;;;5048983;28;20029;-73
2022/03/02 00:28:45;;;;;;;29.15;12.40;;;;;;;;;;5049311;28;20047;-62
2022/03/02 00:31:12;;;;;;;30.23;11.98;;;;;;;;;;5049942;28;20035;-64
2022/03/02 00:33:38;;;;;;;28.70;11.38;;;;;;;;;;5049865;28;20108;-61
2022/03/02 00:36:04;;;;;;;28.27;11.93;;;;;;;;;;5050648;28;20494;-64
2022/03/02 00:38:30;;;;;;;28.05;11.80;;;;;;;;;;5050040;28;20024;-71
2022/03/02 00:40:57;;;;;;;27.83;11.65;;;;;;;;;;5051663;28;20039;-70
2022/03/02 00:43:23;;;;;;;27.30;10.85;;;;;;;;;;5051903;28;20068;-64
2022/03/02 00:45:49;;;;;;;26.60;11.10;;;;;;;;;;5048253;28;20025;-71
2022/03/02 00:48:15;;;;;;;24.85;10.60;;;;;;;;;;5051541;28;20032;-67
2022/03/02 00:50:42;;;;;;;27.38;11.18;;;;;;;;;;5052199;28;20100;-72
2022/03/02 00:53:08;;;;;;;25.30;10.95;;;;;;;;;;5051699;28;20021;-62
2022/03/02 00:55:35;;;;;;;23.38;10.55;;;;;;;;;;5052279;28;20044;-74
2022/03/02 00:58:01;;;;;;;23.20;10.10;;;;;;;;;;5052310;28;20096;-75
2022/03/02 01:00:27;;;;;;;25.92;11.00;;;;;;;;;;5051661;28;20075;-75
2022/03/02 01:02:53;;;;;;;24.88;10.32;;;;;;;;;;5051906;28;20029;-71
2022/03/02 01:05:19;;;;;;;23.38;10.48;;;;;;;;;;5052342;28;20024;-74
2022/03/02 01:07:45;;;;;;;23.90;10.27;;;;;;;;;;5052132;28;20025;-69
2022/03/02 01:10:11;;;;;;;23.13;9.70;;;;;;;;;;5052217;28;20048;-69
2022/03/02 01:12:39;;;;;;;23.42;9.88;;;;;;;;;;5051109;28;20040;-74
2022/03/02 01:15:06;;;;;;;21.00;9.30;;;;;;;;;;5051849;28;20029;-73
2022/03/02 01:17:32;;;;;;;24.52;10.48;;;;;;;;;;5052053;28;20388;-63
2022/03/02 01:19:58;;;;;;;22.65;9.48;;;;;;;;;;5050834;28;20025;-73
2022/03/02 01:22:24;;;;;;;23.63;9.05;;;;;;;;;;5052000;28;20441;-63
2022/03/02 01:24:50;;;;;;;25.02;10.50;;;;;;;;;;5045918;28;20020;-64
2022/03/02 01:27:16;;;;;;;22.80;10.27;;;;;;;;;;5050714;28;20039;-68
2022/03/02 01:29:42;;;;;;;21.77;9.05;;;;;;;;;;5051957;28;20029;-69
2022/03/02 01:32:09;;;;;;;21.58;9.95;;;;;;;;;;5052051;28;20029;-64
2022/03/02 01:34:36;;;;;;;22.50;9.77;;;;;;;;;;5049184;28;20481;-62
2022/03/02 01:37:03;;;;;;;22.20;9.55;;;;;;;;;;5055291;28;20032;-66
2022/03/02 01:39:29;;;;;;;22.48;9.10;;;;;;;;;;5053877;28;20036;-65
2022/03/02 01:41:55;;;;;;;25.27;9.43;;;;;;;;;;5048723;28;20132;-66
2022/03/02 01:44:21;;;;;;;23.63;9.40;;;;;;;;;;5054592;28;20111;-64
2022/03/02 01:46:47;;;;;;;22.27;8.73;;;;;;;;;;5055179;28;20025;-63
2022/03/02 01:49:13;;;;;;;21.48;9.43;;;;;;;;;;5055189;28;20044;-68
2022/03/02 01:51:40;;;;;;;24.38;9.75;;;;;;;;;;5055165;28;20029;-67
2022/03/02 01:54:06;;;;;;;23.00;8.90;;;;;;;;;;5055046;28;20039;-63
2022/03/02 01:56:33;;;;;;;23.05;9.63;;;;;;;;;;5054910;28;20036;-67
2022/03/02 01:58:59;;;;;;;25.88;9.50;;;;;;;;;;5054497;28;20033;-67
2022/03/02 02:01:25;;;;;;;24.48;10.10;;;;;;;;;;5036376;28;20032;-66
2022/03/02 02:03:52;;;;;;;25.45;10.20;;;;;;;;;;5054851;28;20033;-62
2022/03/02 02:06:18;;;;;;;23.80;9.65;;;;;;;;;;5053926;28;20094;-68
2022/03/02 02:08:44;;;;;;;24.05;11.60;;;;;;;;;;5054719;28;20013;-67
2022/03/02 02:11:11;;;;;;;24.08;10.10;;;;;;;;;;5054111;28;20426;-64
2022/03/02 02:13:37;;;;;;;22.45;9.68;;;;;;;;;;5054632;28;20029;-65
2022/03/02 02:16:05;;;;;;;23.58;9.80;;;;;;;;;;5054370;28;20474;-70
2022/03/02 02:18:32;;;;;;;22.25;10.20;;;;;;;;;;5053702;28;20029;-69
2022/03/02 02:21:02;;;;;;;24.42;9.88;;;;;;;;;;5054760;28;20078;-70
2022/03/02 02:23:28;;;;;;;23.97;10.00;;;;;;;;;;5053973;28;20082;-69
2022/03/02 02:25:54;;;;;;;22.98;9.90;;;;;;;;;;5055161;28;20482;-64
2022/03/02 02:28:23;;;;;;;24.70;9.88;;;;;;;;;;5053991;28;20415;-69
2022/03/02 02:30:49;;;;;;;25.00;10.23;;;;;;;;;;5054115;28;20502;-63
2022/03/02 02:33:16;;;;;;;23.55;10.27;;;;;;;;;;5054650;28;20033;-64
2022/03/02 02:35:42;;;;;;;22.85;10.05;;;;;;;;;;5053901;28;20048;-69
2022/03/02 02:38:08;;;;;;;23.05;9.98;;;;;;;;;;5054760;28;20029;-68
2022/03/02 02:40:34;;;;;;;23.83;10.38;;;;;;;;;;5050113;28;20037;-67
2022/03/02 02:43:00;;;;;;;22.55;9.25;;;;;;;;;;5047644;28;20091;-68
2022/03/02 02:45:26;;;;;;;23.13;10.20;;;;;;;;;;5050069;28;20485;-68
2022/03/02 02:47:54;;;;;;;23.88;10.25;;;;;;;;;;5050791;28;20017;-66
2022/03/02 02:50:24;;;;;;;22.58;9.80;;;;;;;;;;5051083;28;20040;-60
2022/03/02 02:52:51;;;;;;;23.80;9.93;;;;;;;;;;5047978;28;20032;-60
2022/03/02 02:55:18;;;;;;;22.83;10.05;;;;;;;;;;5050124;28;20115;-65
2022/03/02 02:57:44;;;;;;;22.23;9.25;;;;;;;;;;5049747;28;20203;-63
2022/03/02 03:00:12;;;;;;;21.13;9.38;;;;;;;;;;5050095;28;20104;-66
2022/03/02 03:02:38;;;;;;;22.38;9.50;;;;;;;;;;5050466;28;20497;-71
2022/03/02 03:05:05;;;;;;;23.10;9.20;;;;;;;;;;5051606;28;20409;-64
2022/03/02 03:07:31;;;;;;;26.40;10.10;;;;;;;;;;5052791;28;20027;-62
2022/03/02 03:09:57;;;;;;;26.08;9.52;;;;;;;;;;5053421;28;20448;-60
2022/03/02 03:12:23;;;;;;;21.95;9.15;;;;;;;;;;5048851;28;20124;-68
2022/03/02 03:14:49;;;;;;;25.08;9.82;;;;;;;;;;5051668;28;20537;-70
2022/03/02 03:17:15;;;;;;;22.80;9.13;;;;;;;;;;5052994;28;20017;-69
2022/03/02 03:19:41;;;;;;;22.00;8.98;;;;;;;;;;5053644;28;20516;-63
2022/03/02 03:22:07;;;;;;;23.83;9.40;;;;;;;;;;5052412;28;20017;-71
2022/03/02 03:24:34;;;;;;;21.67;9.27;;;;;;;;;;5053837;28;20025;-68
2022/03/02 03:27:00;;;;;;;23.50;9.57;;;;;;;;;;5052454;28;20429;-73
2022/03/02 03:29:27;;;;;;;22.60;9.07;;;;;;;;;;5052233;28;20025;-60
2022/03/02 03:31:53;;;;;;;25.15;9.43;;;;;;;;;;5037088;28;20029;-65
2022/03/02 03:34:19;;;;;;;22.50;9.85;;;;;;;;;;5033028;28;20490;-68
2022/03/02 03:36:45;;;;;;;23.70;10.07;;;;;;;;;;5035618;28;20072;-65
2022/03/02 03:39:11;;;;;;;24.30;9.85;;;;;;;;;;5056556;28;20384;-64
2022/03/02 03:41:37;;;;;;;23.92;10.15;;;;;;;;;;5056524;28;20040;-67
2022/03/02 03:44:03;;;;;;;22.52;9.68;;;;;;;;;;5050941;28;20048;-68
2022/03/02 03:46:29;;;;;;;22.75;9.90;;;;;;;;;;5050385;28;20035;-69
2022/03/02 03:48:55;;;;;;;23.13;9.68;;;;;;;;;;5051446;28;20538;-71
2022/03/02 03:51:21;;;;;;;22.98;9.55;;;;;;;;;;5050431;28;20124;-69
2022/03/02 03:53:47;;;;;;;22.77;10.43;;;;;;;;;;5051975;28;20489;-70
2022/03/02 03:56:13;;;;;;;23.30;9.70;;;;;;;;;;5060694;28;20045;-66
2022/03/02 03:58:39;;;;;;;22.20;9.82;;;;;;;;;;5059654;28;20025;-66
2022/03/02 04:01:06;;;;;;;22.70;9.32;;;;;;;;;;5055739;28;20351;-72
2022/03/02 04:03:32;;;;;;;23.52;9.93;;;;;;;;;;5062069;28;20028;-62
2022/03/02 04:05:58;;;;;;;21.42;9.52;;;;;;;;;;5053078;28;20470;-70
2022/03/02 04:08:24;;;;;;;22.17;9.57;;;;;;;;;;5053482;28;20024;-62
2022/03/02 04:10:50;;;;;;;22.20;9.43;;;;;;;;;;5052483;28;20422;-63
2022/03/02 04:13:16;;;;;;;21.63;9.15;;;;;;;;;;5060461;28;20032;-70
2022/03/02 04:15:42;;;;;;;22.20;9.27;;;;;;;;;;5052159;28;20040;-72
2022/03/02 04:18:08;;;;;;;24.40;9.20;;;;;;;;;;5060691;28;20431;-69
2022/03/02 04:20:35;;;;;;;21.95;9.27;;;;;;;;;;5072374;28;20107;-73
2022/03/02 04:23:01;;;;;;;23.33;9.75;;;;;;;;;;5054532;28;20025;-73
2022/03/02 04:25:28;;;;;;;21.98;9.40;;;;;;;;;;5057470;28;20486;-72
2022/03/02 04:27:54;;;;;;;23.55;9.82;;;;;;;;;;5055331;28;20122;-65
2022/03/02 04:30:20;;;;;;;22.77;9.40;;;;;;;;;;5072606;28;20031;-62
2022/03/02 04:32:46;;;;;;;21.67;9.05;;;;;;;;;;5063568;28;20464;-72
2022/03/02 04:35:13;;;;;;;22.83;9.60;;;;;;;;;;5065584;28;20371;-66
2022/03/02 04:37:40;;;;;;;22.17;9.90;;;;;;;;;;5051307;28;20532;-72
2022/03/02 04:40:07;;;;;;;22.60;9.55;;;;;;;;;;5065925;28;20043;-72
2022/03/02 04:42:33;;;;;;;22.05;9.68;;;;;;;;;;5071785;28;20027;-70
2022/03/02 04:44:59;;;;;;;21.13;9.07;;;;;;;;;;5067804;28;20538;-65
2022/03/02 04:47:25;;;;;;;22.75;9.65;;;;;;;;;;5065375;28;20047;-62
2022/03/02 04:49:52;;;;;;;21.88;9.93;;;;;;;;;;5060325;28;20478;-62
2022/03/02 04:52:18;;;;;;;23.85;9.95;;;;;;;;;;5059481;28;20020;-74
2022/03/02 04:57:30;;;;;;;22.83;9.77;;;;;;;;;;5056609;28;20066;-73
2022/03/02 04:59:56;;;;;;;22.63;10.25;;;;;;;;;;5069320;28;20120;-67
2022/03/02 05:02:22;;;;;;;22.42;9.57;;;;;;;;;;5063013;28;20071;-62
2022/03/02 05:04:49;;;;;;;23.63;9.10;;;;;;;;;;5064054;28;20058;-64
2022/03/02 05:07:15;;;;;;;23.58;10.52;;;;;;;;;;5071520;28;20467;-62
2022/03/02 05:09:42;;;;;;;23.17;10.38;;;;;;;;;;5073822;28;20477;-67
2022/03/02 05:12:08;;;;;;;22.48;9.77;;;;;;;;;;5057136;28;20029;-68
2022/03/02 05:14:34;;;;;;;24.48;10.38;;;;;;;;;;5062276;28;20492;-73
2022/03/02 05:17:01;;;;;;;21.65;9.48;;;;;;;;;;5051679;28;20033;-67
2022/03/02 05:19:27;;;;;;;23.25;9.75;;;;;;;;;;5055508;28;20025;-74
2022/03/02 05:21:53;;;;;;;23.52;9.77;;;;;;;;;;5056107;28;20455;-74
2022/03/02 05:24:19;;;;;;;21.50;8.93;;;;;;;;;;5067049;28;20563;-70
2022/03/02 05:26:45;;;;;;;22.17;9.75;;;;;;;;;;5055729;28;20831;-74
2022/03/02 05:29:11;;;;;;;23.23;10.07;;;;;;;;;;5055855;28;20032;-75
2022/03/02 05:31:37;;;;;;;22.65;10.00;;;;;;;;;;5055247;28;20025;-74
2022/03/02 05:34:03;;;;;;;22.55;9.52;;;;;;;;;;5057951;28;20040;-67
2022/03/02 05:36:29;;;;;;;21.60;9.48;;;;;;;;;;5063774;28;20136;-71
2022/03/02 05:38:55;;;;;;;21.98;9.85;;;;;;;;;;5063281;28;20016;-72
2022/03/02 05:41:22;;;;;;;23.75;9.55;;;;;;;;;;5075044;28;20039;-68
2022/03/02 05:43:48;;;;;;;22.20;9.52;;;;;;;;;;5063687;28;20029;-62
2022/03/02 05:46:14;;;;;;;22.55;9.55;;;;;;;;;;5054631;28;20029;-62
2022/03/02 05:48:41;;;;;;;21.73;9.60;;;;;;;;;;5054230;28;20374;-74
2022/03/02 05:51:07;;;;;;;21.90;9.20;;;;;;;;;;5073370;28;20028;-70
2022/03/02 05:53:34;;;;;;;21.65;9.38;;;;;;;;;;5064356;28;20035;-73
2022/03/02 05:56:00;;;;;;;20.58;9.02;;;;;;;;;;5057813;28;20076;-74
2022/03/02 05:58:26;;;;;;;21.83;9.55;;;;;;;;;;5056402;28;20481;-71
2022/03/02 06:00:52;;;;;;;21.40;8.73;;;;;;;;;;5073869;28;20054;-70
2022/03/02 06:03:20;;;;;;;24.48;9.90;;;;;;;;;;5067021;28;20508;-62
2022/03/02 06:05:46;;;;;;;23.85;10.27;;;;;;;;;;5074344;28;20031;-73
2022/03/02 06:08:12;;;;;;;22.02;9.95;;;;;;;;;;5064988;28;20457;-72
2022/03/02 06:10:38;;;;;;;22.48;9.85;;;;;;;;;;5057460;28;20477;-61
2022/03/02 06:13:05;;;;;;;23.05;9.30;;;;;;;;;;5056811;28;20036;-67
2022/03/02 06:15:31;;;;;;;23.23;10.30;;;;;;;;;;5059404;28;20037;-75
2022/03/02 06:18:01;;;;;;;23.77;9.77;;;;;;;;;;5054391;28;20041;-74
2022/03/02 06:20:27;;;;;;;22.15;9.73;;;;;;;;;;5055943;28;20036;-69
2022/03/02 06:22:53;;;;;;;22.60;9.85;;;;;;;;;;5057663;28;20523;-72
2022/03/02 06:25:20;;;;;;;23.08;9.90;;;;;;;;;;5069612;28;20036;-67
2022/03/02 06:27:46;;;;;;;24.20;10.45;;;;;;;;;;5072230;28;20035;-69
2022/03/02 06:30:12;;;;;;;23.38;10.07;;;;;;;;;;5036561;28;20556;-73
2022/03/02 06:32:39;;;;;;;23.65;10.07;;;;;;;;;;5058686;28;20021;-65
2022/03/02 06:35:06;;;;;;;22.42;9.88;;;;;;;;;;5057315;28;20037;-74
2022/03/02 06:37:33;;;;;;;22.55;9.50;;;;;;;;;;5054531;28;20031;-73
2022/03/02 06:40:00;;;;;;;22.50;9.85;;;;;;;;;;5054702;28;20037;-71
2022/03/02 06:42:32;;;;;;;23.20;9.85;;;;;;;;;;5069590;28;20032;-65
2022/03/02 06:45:06;;;;;;;22.05;9.48;;;;;;;;;;5069397;28;20033;-74
2022/03/02 06:47:42;;;;;;;23.90;10.30;;;;;;;;;;5055288;28;20102;-70
2022/03/02 06:50:09;;;;;;;22.63;9.80;;;;;;;;;;5054318;28;20079;-65
2022/03/02 06:52:37;;;;;;;22.38;9.32;;;;;;;;;;5064210;28;20051;-69
2022/03/02 06:55:05;;;;;;;23.05;9.90;;;;;;;;;;5071854;28;20123;-61
2022/03/02 06:57:31;;;;;;;24.40;9.70;;;;;;;;;;5059541;28;20033;-64
2022/03/02 07:00:08;;;;;;;22.48;9.32;;;;;;;;;;5036069;28;20028;-67
2022/03/02 07:02:39;;;;;;;22.58;9.48;;;;;;;;;;5056580;28;20029;-67
2022/03/02 07:05:09;;;;;;;23.08;9.48;;;;;;;;;;5050776;28;20032;-61
2022/03/02 07:07:35;;;;;;;24.08;9.52;;;;;;;;;;5053945;28;20462;-61
2022/03/02 07:10:01;;;;;;;21.48;9.02;;;;;;;;;;5053833;28;20102;-62
2022/03/02 07:12:27;;;;;;;21.45;8.77;;;;;;;;;;5053942;28;20431;-68
2022/03/02 07:14:54;;;;;;;23.25;9.45;;;;;;;;;;5058969;28;20044;-62
2022/03/02 07:17:21;;;;;;;24.00;9.52;;;;;;;;;;5050121;28;20021;-63
2022/03/02 07:19:47;;;;;;;23.10;9.73;;;;;;;;;;5053749;28;20032;-71
2022/03/02 07:22:16;;;;;;;22.42;8.85;;;;;;;;;;5053779;28;20025;-66
2022/03/02 07:24:51;;;;;;;23.80;9.15;;;;;;;;;;5065531;28;20028;-70
2022/03/02 07:27:18;;;;;;;21.90;9.23;;;;;;;;;;5056935;28;20024;-72
2022/03/02 07:29:44;;;;;;;22.25;8.95;;;;;;;;;;5064863;28;20097;-71
2022/03/02 07:32:11;;;;;;;21.33;8.95;;;;;;;;;;5072747;28;20103;-73
2022/03/02 07:34:40;;;;;;;21.55;8.40;;;;;;;;;;5071818;28;20029;-72
2022/03/02 07:37:09;;;;;;;22.83;8.48;;;;;;;;;;5049161;28;20033;-66
2022/03/02 07:39:36;;;;;;;21.35;8.38;;;;;;;;;;5049771;28;20153;-71
2022/03/02 07:42:03;;;;;;;21.60;8.50;;;;;;;;;;5073169;28;20055;-72
2022/03/02 07:44:29;;;;;;;22.80;8.68;;;;;;;;;;5070480;28;20064;-66
2022/03/02 07:46:55;;;;;;;20.83;8.18;;;;;;;;;;5056925;28;20076;-63
2022/03/02 07:49:21;;;;;;;22.08;8.90;;;;;;;;;;5056501;28;20070;-70
2022/03/02 07:51:48;;;;;;;22.92;8.75;;;;;;;;;;5057345;28;20024;-71
2022/03/02 07:54:16;;;;;;;20.80;8.63;;;;;;;;;;5065071;28;20040;-68
2022/03/02 07:56:43;;;;;;;22.55;8.80;;;;;;;;;;5053867;28;20025;-63
2022/03/02 07:59:09;;;;;;;25.30;9.55;;;;;;;;;;5073099;28;20036;-70
2022/03/02 08:01:36;;;;;;;24.52;9.25;;;;;;;;;;5061634;28;20108;-63
2022/03/02 08:04:09;;;;;;;23.00;9.35;;;;;;;;;;5069476;28;20060;-66
2022/03/02 08:06:36;;;;;;;25.20;9.75;;;;;;;;;;5073056;28;20101;-67
2022/03/02 08:09:03;;;;;;;27.08;9.93;;;;;;;;;;5047853;28;20028;-67
2022/03/02 08:11:31;;;;;;;25.08;10.70;;;;;;;;;;5058037;28;20029;-71
2022/03/02 08:13:59;;;;;;;26.20;11.27;;;;;;;;;;5056079;28;20545;-64
2022/03/02 08:16:25;;;;;;;24.38;10.48;;;;;;;;;;5061809;28;20041;-71
2022/03/02 08:18:51;;;;;;;24.90;10.55;;;;;;;;;;5057344;28;20069;-71
2022/03/02 08:21:18;;;;;;;28.83;10.82;;;;;;;;;;5061506;28;20369;-70
2022/03/02 08:23:45;;;;;;;23.50;9.88;;;;;;;;;;5051763;28;20474;-67
2022/03/02 08:26:12;;;;;;;26.05;10.32;;;;;;;;;;5049280;28;20016;-69
2022/03/02 08:28:40;;;;;;;25.02;10.60;;;;;;;;;;5052309;28;20029;-66
2022/03/02 08:31:06;;;;;;;23.80;9.63;;;;;;;;;;5055351;28;20123;-60
2022/03/02 08:33:35;;;;;;;24.58;10.05;;;;;;;;;;5052443;28;20055;-64
2022/03/02 08:36:02;;;;;;;23.90;10.20;;;;;;;;;;5056490;28;20040;-62
2022/03/02 08:38:28;;;;;;;26.08;10.65;;;;;;;;;;5059703;28;20443;-61
2022/03/02 08:40:55;;;;;;;25.40;10.60;;;;;;;;;;5072191;28;20024;-60
2022/03/02 08:43:21;;;;;;;24.80;10.07;;;;;;;;;;5073641;28;20397;-63
2022/03/02 08:45:51;;;;;;;24.77;9.98;;;;;;;;;;5059578;28;20098;-61
2022/03/02 08:48:18;;;;;;;27.47;9.77;;;;;;;;;;5055297;28;20080;-60
2022/03/02 08:50:45;;;;;;;25.38;10.07;;;;;;;;;;5056749;28;20021;-61
2022/03/02 08:53:14;;;;;;;24.10;10.05;;;;;;;;;;5056655;28;20032;-66
2022/03/02 08:55:41;;;;;;;23.90;9.75;;;;;;;;;;5053660;28;20067;-66
2022/03/02 08:58:08;;;;;;;22.65;9.90;;;;;;;;;;5055121;28;20477;-60
2022/03/02 09:00:34;;;;;;;25.08;10.05;;;;;;;;;;5055032;28;20057;-62
2022/03/02 09:03:02;;;;;;;24.30;9.80;;;;;;;;;;5056217;28;20028;-61
2022/03/02 09:05:28;;;;;;;25.23;10.20;;;;;;;;;;5049098;28;20053;-60
2022/03/02 09:07:55;;;;;;;23.48;9.98;;;;;;;;;;5055498;28;20477;-60
2022/03/02 09:10:22;;;;;;;24.77;9.93;;;;;;;;;;5055650;28;20033;-61
2022/03/02 09:12:48;;;;;;;23.95;10.40;;;;;;;;;;5056213;28;20025;-62
2022/03/02 09:15:14;;;;;;;23.60;10.30;;;;;;;;;;5054355;28;20467;-64
2022/03/02 09:17:40;;;;;;;25.02;10.20;;;;;;;;;;5041917;28;20072;-64
2022/03/02 09:20:07;;;;;;;24.95;9.63;;;;;;;;;;5052636;28;20048;-62
2022/03/02 09:22:33;;;;;;;25.92;10.27;;;;;;;;;;5055385;28;20022;-63
2022/03/02 09:25:00;;;;;;;25.65;11.15;;;;;;;;;;5051137;28;20049;-64
2022/03/02 09:27:29;;;;;;;28.05;11.10;;;;;;;;;;5052549;28;20074;-62
2022/03/02 09:29:58;;;;;;;28.67;11.63;;;;;;;;;;5054144;28;20028;-62
2022/03/02 09:32:24;;;;;;;27.15;11.52;;;;;;;;;;5055406;28;20060;-63
2022/03/02 09:34:53;;;;;;;27.25;11.48;;;;;;;;;;5054923;28;20039;-64
2022/03/02 09:37:21;;;;;;;28.30;12.48;;;;;;;;;;5054699;28;20021;-62
2022/03/02 09:39:47;;;;;;;25.25;11.32;;;;;;;;;;5055059;28;20064;-62
2022/03/02 09:42:20;;;;;;;26.20;11.90;;;;;;;;;;5049128;28;20037;-62
2022/03/02 09:44:47;;;;;;;28.42;12.13;;;;;;;;;;5053290;28;20087;-63
2022/03/02 09:47:19;;;;;;;28.85;11.80;;;;;;;;;;5054684;28;20351;-61
2022/03/02 09:49:50;;;;;;;26.73;11.52;;;;;;;;;;5054780;28;20606;-63
2022/03/02 09:52:19;;;;;;;28.05;11.77;;;;;;;;;;5054685;28;20021;-62
2022/03/02 09:54:46;;;;;;;27.27;11.90;;;;;;;;;;5055893;28;20039;-65
2022/03/02 09:57:17;;;;;;;26.85;12.18;;;;;;;;;;5063244;28;20397;-67
2022/03/02 09:59:48;;;;;;;25.55;11.35;;;;;;;;;;5063560;28;20168;-67
2022/03/02 10:02:20;;;;;;;24.92;11.07;;;;;;;;;;5062744;28;20020;-67
2022/03/02 10:04:50;;;;;;;26.13;11.45;;;;;;;;;;5059026;28;20040;-64
2022/03/02 10:07:27;;;;;;;29.63;11.30;;;;;;;;;;5063656;28;20095;-63
2022/03/02 10:10:02;;;;;;;24.33;10.63;;;;;;;;;;5060534;28;20024;-64
2022/03/02 10:12:30;;;;;;;25.48;12.18;;;;;;;;;;5061300;28;20028;-64
2022/03/02 10:14:56;;;;;;;25.75;11.88;;;;;;;;;;5061433;28;20025;-63
2022/03/02 10:17:24;;;;;;;25.92;11.45;;;;;;;;;;5063452;28;20477;-63
2022/03/02 10:19:55;;;;;;;25.95;11.40;;;;;;;;;;5058451;28;20600;-63
2022/03/02 10:22:36;;;;;;;25.00;11.25;;;;;;;;;;5045609;28;20039;-67
2022/03/02 10:25:13;;;;;;;25.42;11.05;;;;;;;;;;5055926;28;20032;-65
2022/03/02 10:27:49;;;;;;;25.85;11.75;;;;;;;;;;5047043;28;20482;-62
2022/03/02 10:30:16;;;;;;;26.92;11.82;;;;;;;;;;5059870;28;20044;-62
2022/03/02 10:32:43;;;;;;;25.50;11.77;;;;;;;;;;5061834;28;20028;-62
2022/03/02 10:35:10;;;;;;;25.70;11.18;;;;;;;;;;5067489;28;20033;-61
2022/03/02 10:37:41;;;;;;;25.05;11.52;;;;;;;;;;5063826;28;20046;-64
2022/03/02 10:40:12;;;;;;;24.90;11.10;;;;;;;;;;5037913;28;20029;-64
2022/03/02 10:42:42;;;;;;;26.45;11.48;;;;;;;;;;5054003;28;20059;-62
2022/03/02 10:45:10;;;;;;;24.83;11.38;;;;;;;;;;5054074;28;20052;-62
2022/03/02 10:47:41;;;;;;;25.92;12.00;;;;;;;;;;5054041;28;20021;-65
2022/03/02 10:50:07;;;;;;;28.17;11.07;;;;;;;;;;5053659;28;20021;-66
2022/03/02 10:52:36;;;;;;;26.38;11.15;;;;;;;;;;5053525;28;20044;-63
2022/03/02 10:55:05;;;;;;;24.95;10.32;;;;;;;;;;5053499;28;20028;-63
2022/03/02 10:57:32;;;;;;;24.85;11.27;;;;;;;;;;5049935;28;20083;-66
2022/03/02 11:00:01;;;;;;;25.73;11.85;;;;;;;;;;5046592;28;20099;-62
2022/03/02 11:02:28;;;;;;;28.17;12.48;;;;;;;;;;5053672;28;20021;-61
2022/03/02 11:04:55;;;;;;;25.80;11.35;;;;;;;;;;5053256;28;20474;-62
2022/03/02 11:07:22;;;;;;;25.88;10.75;;;;;;;;;;5051465;28;20017;-62
2022/03/02 11:09:51;;;;;;;24.83;11.15;;;;;;;;;;5052915;28;20063;-64
2022/03/02 11:12:21;;;;;;;24.50;10.38;;;;;;;;;;5052874;28;20165;-62
2022/03/02 11:15:13;;;;;;;24.55;11.27;;;;;;;;;;5044027;28;20045;-62
2022/03/02 11:17:58;;;;;;;24.75;10.85;;;;;;;;;;5047581;28;20067;-65
2022/03/02 11:20:25;;;;;;;24.10;10.63;;;;;;;;;;5034543;28;20150;-66
2022/03/02 11:23:14;;;;;;;24.23;10.27;;;;;;;;;;5051436;28;20039;-64
2022/03/02 11:25:44;;;;;;;26.27;10.63;;;;;;;;;;5036222;28;20025;-63
2022/03/02 11:28:13;;;;;;;25.73;10.27;;;;;;;;;;5052530;28;20017;-67
2022/03/02 11:30:39;;;;;;;25.02;10.18;;;;;;;;;;5051619;28;20029;-69
2022/03/02 11:33:08;;;;;;;31.20;11.40;;;;;;;;;;5053182;28;20402;-58
2022/03/02 11:35:37;;;;;;;54.38;11.75;;;;;;;;;;5053067;28;20037;-60
2022/03/02 11:38:05;;;;;;;46.00;11.23;;;;;;;;;;5055507;28;20029;-67
2022/03/02 11:40:41;;;;;;;33.88;11.45;;;;;;;;;;5058658;28;20029;-62
2022/03/02 11:43:19;;;;;;;31.48;11.43;;;;;;;;;;5053610;28;20056;-61
2022/03/02 11:45:45;;;;;;;79.30;66.90;;;;;;;;;;5070721;28;20028;-69
2022/03/02 11:48:20;;;;;;;43.80;25.20;;;;;;;;;;5051860;28;20071;-59
2022/03/02 11:51:02;;;;;;;64.03;54.83;;;;;;;;;;5052342;28;20035;-59
2022/03/02 11:53:33;;;;;;;43.15;31.85;;;;;;;;;;5049272;28;20142;-59
2022/03/02 11:56:01;;;;;;;33.28;20.15;;;;;;;;;;5040350;28;20538;-60
2022/03/02 11:58:27;;;;;;;38.28;16.13;;;;;;;;;;5042813;28;20109;-60
2022/03/02 12:00:58;;;;;;;29.20;14.70;;;;;;;;;;5034760;28;20087;-60
2022/03/02 12:03:24;;;;;;;27.30;13.55;;;;;;;;;;5047197;28;20025;-59
2022/03/02 12:06:04;;;;;;;26.02;12.73;;;;;;;;;;5051233;28;20423;-60
2022/03/02 12:08:32;;;;;;;25.92;11.75;;;;;;;;;;5056309;28;20090;-59
2022/03/02 12:11:02;;;;;;;26.80;12.10;;;;;;;;;;5056949;28;20028;-59
2022/03/02 12:13:29;;;;;;;24.92;11.02;;;;;;;;;;5057271;28;20108;-62
2022/03/02 12:15:55;;;;;;;24.95;10.90;;;;;;;;;;5048845;28;20033;-62
2022/03/02 12:18:22;;;;;;;24.73;11.60;;;;;;;;;;5039347;28;20053;-60
2022/03/02 12:20:52;;;;;;;25.30;11.30;;;;;;;;;;5048970;28;20033;-61
2022/03/02 12:23:22;;;;;;;26.87;12.27;;;;;;;;;;5048325;28;20029;-62
2022/03/02 12:25:48;;;;;;;26.25;11.70;;;;;;;;;;5055552;28;20365;-62
2022/03/02 12:28:15;;;;;;;24.95;11.55;;;;;;;;;;5050018;28;20032;-60
2022/03/02 12:30:42;;;;;;;26.95;12.55;;;;;;;;;;5049016;28;20033;-60
2022/03/02 12:33:08;;;;;;;26.90;12.10;;;;;;;;;;5045099;28;20028;-60
2022/03/02 12:35:34;;;;;;;25.95;11.85;;;;;;;;;;5047940;28;20049;-60
2022/03/02 12:38:02;;;;;;;26.60;11.82;;;;;;;;;;5044032;28;20028;-61
2022/03/02 12:40:30;;;;;;;29.30;11.65;;;;;;;;;;5050101;28;20432;-61
2022/03/02 12:42:57;;;;;;;25.65;11.63;;;;;;;;;;5050619;28;20792;-60
2022/03/02 12:45:24;;;;;;;26.80;12.70;;;;;;;;;;5051979;28;20119;-66
2022/03/02 12:47:50;;;;;;;26.98;12.43;;;;;;;;;;5051094;28;20036;-60
2022/03/02 12:50:17;;;;;;;27.25;12.52;;;;;;;;;;5047937;28;20733;-62
2022/03/02 12:52:46;;;;;;;26.85;11.98;;;;;;;;;;5048162;28;20074;-60
2022/03/02 12:55:13;;;;;;;27.90;12.52;;;;;;;;;;5030864;28;20045;-62
2022/03/02 12:57:39;;;;;;;26.67;13.40;;;;;;;;;;5049607;28;20025;-62
2022/03/02 13:00:26;;;;;;;27.25;12.48;;;;;;;;;;5054771;28;20043;-59
2022/03/02 13:02:54;;;;;;;27.92;12.85;;;;;;;;;;5062344;28;20060;-60
2022/03/02 13:05:32;;;;;;;26.02;12.23;;;;;;;;;;5058484;28;20032;-59
2022/03/02 13:07:58;;;;;;;30.17;13.32;;;;;;;;;;5052470;28;20044;-59
2022/03/02 13:10:25;;;;;;;31.13;14.90;;;;;;;;;;5048703;28;20033;-61
2022/03/02 13:12:55;;;;;;;33.83;17.17;;;;;;;;;;5050507;28;20698;-61
2022/03/02 13:15:34;;;;;;;35.00;17.25;;;;;;;;;;5048819;28;20059;-60
2022/03/02 13:18:09;;;;;;;37.72;17.60;;;;;;;;;;5049897;28;20032;-60
2022/03/02 13:20:44;;;;;;;34.75;15.68;;;;;;;;;;5048258;28;20028;-59
2022/03/02 13:23:15;;;;;;;31.38;15.68;;;;;;;;;;5049429;28;20109;-65
2022/03/02 13:25:49;;;;;;;30.77;14.13;;;;;;;;;;5045053;28;20035;-60
2022/03/02 13:28:15;;;;;;;27.55;12.65;;;;;;;;;;5047285;28;20037;-59
2022/03/02 13:30:49;;;;;;;26.95;12.85;;;;;;;;;;5053789;28;20028;-65
2022/03/02 13:33:15;;;;;;;26.90;12.43;;;;;;;;;;5051963;28;20068;-65
2022/03/02 13:36:07;;;;;;;27.70;12.68;;;;;;;;;;5045969;28;20120;-60
2022/03/02 13:38:46;;;;;;;24.70;11.77;;;;;;;;;;5040040;28;20037;-60
2022/03/02 13:41:30;;;;;;;26.58;11.95;;;;;;;;;;5043950;28;20029;-59
2022/03/02 13:44:16;;;;;;;27.55;12.38;;;;;;;;;;5050877;28;20510;-59
2022/03/02 13:46:42;;;;;;;25.42;11.73;;;;;;;;;;5044626;28;20063;-61
2022/03/02 13:49:09;;;;;;;25.45;11.52;;;;;;;;;;5054081;28;20035;-59
2022/03/02 13:51:49;;;;;;;25.90;11.40;;;;;;;;;;5055604;28;20033;-61
2022/03/02 13:54:25;;;;;;;25.47;11.57;;;;;;;;;;5051078;28;20457;-63
2022/03/02 13:56:51;;;;;;;27.02;11.52;;;;;;;;;;5048600;28;20742;-60
2022/03/02 13:59:18;;;;;;;33.92;11.85;;;;;;;;;;5054979;28;20033;-59
2022/03/02 14:01:44;;;;;;;27.15;12.38;;;;;;;;;;5056941;28;20055;-59
2022/03/02 14:04:12;;;;;;;26.23;11.90;;;;;;;;;;5043191;28;20032;-59
2022/03/02 14:06:39;;;;;;;26.83;12.35;;;;;;;;;;5050807;28;20083;-61
2022/03/02 14:09:06;;;;;;;25.55;12.23;;;;;;;;;;5054211;28;20025;-59
2022/03/02 14:11:40;;;;;;;26.17;12.30;;;;;;;;;;5048943;28;20029;-59
2022/03/02 14:14:08;;;;;;;26.42;11.30;;;;;;;;;;5046965;28;20206;-60
2022/03/02 14:16:34;;;;;;;28.95;12.23;;;;;;;;;;5046266;28;20036;-60
2022/03/02 14:19:19;;;;;;;25.23;11.95;;;;;;;;;;5053959;28;20025;-59
2022/03/02 14:21:52;;;;;;;23.98;10.90;;;;;;;;;;5046524;28;20028;-63
2022/03/02 14:24:19;;;;;;;24.55;11.13;;;;;;;;;;5048953;28;20036;-58
2022/03/02 14:26:51;;;;;;;28.35;12.50;;;;;;;;;;5039073;28;20029;-59
2022/03/02 14:29:19;;;;;;;50.78;27.23;;;;;;;;;;5047557;28;20029;-58
2022/03/02 14:31:56;;;;;;;130.27;65.75;;;;;;;;;;5040753;28;20028;-63